Time;durP1;ratioP1;P1;durP2;ratioP2;P2;SDS_P1;SDS_P2;PMS_P1;PMS_P2;Temp;Humidity;BMP_temperature;BMP_pressure;BME280_temperature;BME280_humidity;BME280_pressure;Samples;Min_cycle;Max_cycle;Signal;HPM_P1;HPM_P2
2021/12/12 00:02:45;;;;;;;20.42;7.05;;;22.10;51.30;;;;;;5212061;28;20401;-81
2021/12/12 00:05:20;;;;;;;20.35;7.72;;;22.10;51.20;;;;;;5213123;28;20048;-81
2021/12/12 00:07:53;;;;;;;17.85;7.32;;;22.10;51.30;;;;;;5213259;28;20041;-80
2021/12/12 00:10:29;;;;;;;19.17;7.22;;;22.10;51.30;;;;;;5205391;28;20287;-80
2021/12/12 00:13:08;;;;;;;19.38;7.00;;;22.10;51.30;;;;;;5211052;28;20048;-80
2021/12/12 00:15:40;;;;;;;22.48;6.85;;;22.10;51.40;;;;;;5212866;28;20048;-81
2021/12/12 00:18:13;;;;;;;20.20;7.63;;;22.10;51.40;;;;;;5207216;28;20083;-82
2021/12/12 00:20:48;;;;;;;31.02;8.27;;;22.10;51.40;;;;;;5214040;28;20577;-81
2021/12/12 00:23:21;;;;;;;23.25;7.30;;;22.10;51.40;;;;;;5194976;28;20516;-84
2021/12/12 00:25:57;;;;;;;27.17;7.40;;;22.10;51.50;;;;;;5193909;28;20057;-82
2021/12/12 00:28:30;;;;;;;24.30;8.50;;;22.10;51.50;;;;;;5212406;28;20045;-82
2021/12/12 00:31:09;;;;;;;19.88;7.22;;;22.10;51.50;;;;;;5211982;28;20049;-83
2021/12/12 00:33:47;;;;;;;18.98;7.15;;;22.10;51.50;;;;;;5213042;28;20045;-84
2021/12/12 00:36:23;;;;;;;18.40;7.35;;;22.10;51.40;;;;;;5214378;28;20044;-82
2021/12/12 00:39:00;;;;;;;15.27;6.53;;;22.10;51.40;;;;;;5179592;28;20538;-84
2021/12/12 00:41:53;;;;;;;12.90;6.40;;;22.10;51.40;;;;;;5187360;28;20049;-85
2021/12/12 00:44:27;;;;;;;15.07;6.30;;;22.10;51.30;;;;;;5192499;28;20053;-81
2021/12/12 00:47:02;;;;;;;17.90;6.68;;;22.10;51.30;;;;;;5190612;28;20052;-83
2021/12/12 00:49:37;;;;;;;18.95;7.15;;;22.10;51.30;;;;;;5194589;28;20049;-81
2021/12/12 00:52:15;;;;;;;15.10;5.90;;;22.10;51.40;;;;;;5204651;28;20040;-81
2021/12/12 00:54:50;;;;;;;16.83;6.70;;;22.10;51.30;;;;;;5209001;28;20390;-85
2021/12/12 00:57:22;;;;;;;15.27;6.05;;;22.10;51.30;;;;;;5204965;28;20044;-82
2021/12/12 00:59:55;;;;;;;17.35;6.50;;;22.10;51.40;;;;;;5208003;28;20384;-84
2021/12/12 01:02:30;;;;;;;15.37;6.50;;;22.10;51.40;;;;;;5198717;28;20537;-80
2021/12/12 01:05:05;;;;;;;16.83;6.10;;;22.10;51.40;;;;;;5203151;28;20052;-82
2021/12/12 01:07:41;;;;;;;13.63;6.03;;;22.10;51.40;;;;;;5202696;28;20045;-81
2021/12/12 01:10:34;;;;;;;12.15;5.25;;;22.10;51.40;;;;;;5208231;28;20041;-82
2021/12/12 01:13:07;;;;;;;19.58;5.88;;;22.10;51.40;;;;;;5208490;28;20037;-82
2021/12/12 01:15:47;;;;;;;11.02;5.30;;;22.10;51.40;;;;;;5202330;28;20439;-79
2021/12/12 01:18:29;;;;;;;13.65;5.43;;;22.10;51.50;;;;;;5190866;28;20048;-82
2021/12/12 01:21:18;;;;;;;12.80;6.07;;;22.00;51.50;;;;;;5192003;28;20442;-83
2021/12/12 01:23:59;;;;;;;11.32;4.80;;;22.10;51.50;;;;;;5191614;28;20060;-83
2021/12/12 01:26:32;;;;;;;9.02;4.72;;;22.10;51.50;;;;;;5211165;28;20414;-82
2021/12/12 01:29:06;;;;;;;14.13;6.05;;;22.00;51.50;;;;;;5204504;28;20045;-81
2021/12/12 01:31:46;;;;;;;10.18;5.07;;;22.00;51.50;;;;;;5207412;28;20041;-82
2021/12/12 01:34:24;;;;;;;10.90;5.32;;;22.10;51.50;;;;;;5205674;28;20045;-80
2021/12/12 01:39:41;;;;;;;9.90;4.90;;;22.10;51.50;;;;;;5207367;28;20049;-82
2021/12/12 01:42:22;;;;;;;13.07;4.88;;;22.00;51.50;;;;;;5187871;28;20036;-81
2021/12/12 01:45:02;;;;;;;11.15;5.10;;;22.10;51.60;;;;;;5210595;28;20045;-80
2021/12/12 01:47:38;;;;;;;14.35;5.10;;;22.10;51.60;;;;;;5192260;28;20157;-83
2021/12/12 01:50:26;;;;;;;11.23;4.93;;;22.00;51.60;;;;;;5214780;28;20056;-84
2021/12/12 01:53:04;;;;;;;10.20;4.32;;;22.00;51.60;;;;;;5210981;28;20071;-81
2021/12/12 01:55:49;;;;;;;11.85;4.90;;;22.00;51.60;;;;;;5206718;28;20068;-80
2021/12/12 01:58:25;;;;;;;9.75;4.97;;;22.00;51.70;;;;;;5209445;28;20049;-82
2021/12/12 02:01:02;;;;;;;9.57;4.50;;;22.00;51.70;;;;;;5206449;28;20049;-81
2021/12/12 02:03:40;;;;;;;9.55;4.57;;;22.00;51.60;;;;;;5214569;28;20048;-85
2021/12/12 02:06:16;;;;;;;8.48;4.78;;;22.00;51.60;;;;;;5209463;28;20060;-79
2021/12/12 02:08:52;;;;;;;6.82;4.20;;;22.00;51.60;;;;;;5209084;28;20037;-83
2021/12/12 02:11:29;;;;;;;10.57;4.10;;;22.00;51.50;;;;;;5189727;28;20049;-81
2021/12/12 02:14:10;;;;;;;5.93;3.67;;;22.00;51.50;;;;;;5205799;28;20080;-81
2021/12/12 02:16:58;;;;;;;7.78;4.30;;;22.00;51.50;;;;;;5204743;28;20049;-81
2021/12/12 02:19:45;;;;;;;9.15;4.38;;;22.00;51.50;;;;;;5206112;28;20045;-83
2021/12/12 02:23:11;;;;;;;9.02;4.22;;;22.00;51.50;;;;;;5203272;28;20083;-85
2021/12/12 02:36:25;;;;;;;6.47;3.80;;;22.00;51.60;;;;;;5206388;28;20056;-85
2021/12/12 02:38:58;;;;;;;10.93;4.50;;;22.00;51.60;;;;;;5203278;28;20057;-83
2021/12/12 02:41:31;;;;;;;7.07;3.55;;;22.00;51.50;;;;;;5209535;28;20045;-83
2021/12/12 02:44:05;;;;;;;7.00;3.75;;;22.00;51.50;;;;;;5204232;28;20068;-82
2021/12/12 02:46:37;;;;;;;7.00;3.70;;;22.00;51.60;;;;;;5191190;28;21033;-84
2021/12/12 02:49:25;;;;;;;7.90;4.00;;;22.00;51.50;;;;;;5207966;28;20045;-83
2021/12/12 02:51:58;;;;;;;9.73;3.95;;;22.00;51.60;;;;;;5204764;28;21177;-81
2021/12/12 02:54:31;;;;;;;8.87;3.63;;;22.00;51.70;;;;;;5189496;28;20059;-84
2021/12/12 02:57:05;;;;;;;11.45;3.75;;;22.00;51.60;;;;;;5206064;28;20044;-85
2021/12/12 02:59:40;;;;;;;8.98;3.38;;;22.00;51.60;;;;;;5205568;28;20060;-85
2021/12/12 03:02:17;;;;;;;8.30;3.42;;;22.00;51.60;;;;;;5206744;28;20399;-86
2021/12/12 03:04:51;;;;;;;10.48;3.55;;;21.90;51.50;;;;;;5189966;28;20064;-84
2021/12/12 03:07:24;;;;;;;10.80;4.15;;;21.90;51.50;;;;;;5205877;28;20501;-86
2021/12/12 03:09:58;;;;;;;7.15;3.63;;;21.90;51.50;;;;;;5209525;28;20052;-85
2021/12/12 03:12:34;;;;;;;10.07;3.70;;;21.90;51.40;;;;;;5199333;28;20481;-81
2021/12/12 03:15:17;;;;;;;7.00;3.47;;;21.90;51.50;;;;;;5185965;28;20456;-82
2021/12/12 03:17:54;;;;;;;6.82;3.13;;;21.90;51.40;;;;;;5203614;28;20037;-83
2021/12/12 03:20:32;;;;;;;6.68;3.35;;;22.00;51.50;;;;;;5205486;28;20519;-82
2021/12/12 03:23:09;;;;;;;9.68;3.45;;;21.90;51.50;;;;;;5205358;28;20482;-87
2021/12/12 03:25:42;;;;;;;9.13;3.50;;;21.90;51.90;;;;;;5204129;28;20076;-82
2021/12/12 03:28:16;;;;;;;;;;;21.90;51.40;;;;;;5202285;28;20076;-83
2021/12/12 03:30:52;;;;;;;5.38;2.75;;;21.90;51.40;;;;;;5205006;28;19924;-84
2021/12/12 03:33:27;;;;;;;7.25;3.35;;;21.90;51.50;;;;;;5205736;28;20057;-83
2021/12/12 03:36:03;;;;;;;6.13;2.88;;;21.90;51.50;;;;;;5203110;28;20049;-85
2021/12/12 03:38:43;;;;;;;5.60;2.92;;;21.90;51.40;;;;;;5206467;28;20045;-82
2021/12/12 03:41:22;;;;;;;4.68;2.80;;;21.90;51.40;;;;;;5206238;28;20053;-87
2021/12/12 03:43:58;;;;;;;7.40;3.33;;;21.90;51.40;;;;;;5210372;28;20335;-83
2021/12/12 03:46:32;;;;;;;5.13;3.00;;;21.90;51.30;;;;;;5191259;28;20049;-85
2021/12/12 03:49:07;;;;;;;6.50;2.80;;;21.90;51.30;;;;;;5208295;28;20037;-84
2021/12/12 03:51:40;;;;;;;7.80;3.35;;;21.90;51.30;;;;;;5210162;28;20048;-84
2021/12/12 03:54:14;;;;;;;5.30;2.70;;;21.90;51.30;;;;;;5210718;28;20514;-83
2021/12/12 03:56:46;;;;;;;7.05;3.03;;;21.90;51.30;;;;;;5172657;28;20719;-82
2021/12/12 03:59:19;;;;;;;5.37;2.57;;;21.90;51.30;;;;;;5188834;28;20060;-85
2021/12/12 04:01:53;;;;;;;7.23;2.60;;;21.90;51.30;;;;;;5205221;28;20684;-83
2021/12/12 04:04:27;;;;;;;;;;;21.90;51.30;;;;;;5209766;28;20431;-82
2021/12/12 04:07:01;;;;;;;;;;;21.80;51.20;;;;;;5207502;28;20358;-85
2021/12/12 04:09:33;;;;;;;7.00;2.83;;;21.80;51.30;;;;;;5190064;28;19956;-82
2021/12/12 04:12:09;;;;;;;5.88;3.08;;;21.80;51.30;;;;;;5205801;28;20053;-82
2021/12/12 04:14:42;;;;;;;4.93;2.58;;;21.90;51.30;;;;;;5208576;28;20545;-82
2021/12/12 04:17:17;;;;;;;;;;;21.90;51.30;;;;;;5208041;28;20037;-87
2021/12/12 04:19:53;;;;;;;4.28;2.33;;;21.80;51.20;;;;;;5206793;28;20294;-84
2021/12/12 04:22:26;;;;;;;4.60;2.55;;;21.80;51.30;;;;;;5205693;28;20045;-84
2021/12/12 04:24:59;;;;;;;4.53;2.50;;;21.80;51.30;;;;;;5207120;28;20417;-81
2021/12/12 04:27:32;;;;;;;4.20;2.60;;;21.80;51.30;;;;;;5204368;28;20053;-83
2021/12/12 04:30:07;;;;;;;4.07;2.47;;;21.80;51.20;;;;;;5205696;28;20044;-85
2021/12/12 04:32:41;;;;;;;4.43;2.70;;;21.80;51.20;;;;;;5205844;28;20060;-83
2021/12/12 04:35:25;;;;;;;3.80;2.40;;;21.80;51.30;;;;;;5187957;28;20410;-85
2021/12/12 04:38:00;;;;;;;7.20;2.30;;;21.80;51.30;;;;;;5208175;28;20180;-86
2021/12/12 04:40:35;;;;;;;4.97;2.50;;;21.80;51.30;;;;;;5203979;28;20049;-82
2021/12/12 04:43:07;;;;;;;3.22;2.38;;;21.80;51.30;;;;;;5197759;28;22500;-83
2021/12/12 04:46:02;;;;;;;7.78;2.33;;;21.80;51.30;;;;;;5203784;28;20057;-81
2021/12/12 04:51:59;;;;;;;7.45;2.67;;;21.80;51.30;;;;;;5207259;28;20056;-85
2021/12/12 04:54:58;;;;;;;3.97;2.15;;;21.90;51.40;;;;;;5203161;28;20056;-85
2021/12/12 04:57:46;;;;;;;6.57;1.90;;;21.80;51.30;;;;;;5202148;28;20045;-87
2021/12/12 05:00:23;;;;;;;7.00;2.40;;;21.80;51.40;;;;;;5205893;28;20056;-83
2021/12/12 05:03:05;;;;;;;5.93;2.20;;;21.80;51.30;;;;;;5189490;28;20055;-83
2021/12/12 05:06:02;;;;;;;11.05;2.30;;;21.80;51.30;;;;;;5210576;28;20053;-85
2021/12/12 05:08:41;;;;;;;5.20;2.78;;;21.80;51.40;;;;;;5190671;28;20068;-84
2021/12/12 05:11:31;;;;;;;11.60;2.53;;;21.80;51.40;;;;;;5187250;28;20431;-85
2021/12/12 05:14:09;;;;;;;11.57;2.50;;;21.80;51.40;;;;;;5209415;28;20048;-82
2021/12/12 05:16:44;;;;;;;9.50;2.25;;;21.80;51.50;;;;;;5176764;28;20603;-85
2021/12/12 05:19:22;;;;;;;5.22;2.60;;;21.80;51.50;;;;;;5210504;28;20041;-82
2021/12/12 05:22:09;;;;;;;6.40;2.47;;;21.80;51.50;;;;;;5194675;28;20091;-83
2021/12/12 05:24:44;;;;;;;5.28;2.08;;;21.80;51.40;;;;;;5194487;28;20072;-83
2021/12/12 05:27:20;;;;;;;4.65;2.05;;;21.80;51.40;;;;;;5209356;28;20075;-82
2021/12/12 05:30:03;;;;;;;6.10;2.17;;;21.80;51.40;;;;;;5211005;28;20049;-86
2021/12/12 05:32:36;;;;;;;4.97;2.40;;;21.80;51.30;;;;;;5216177;28;20056;-82
2021/12/12 05:35:11;;;;;;;3.28;1.80;;;21.80;51.30;;;;;;5206097;28;20199;-86
2021/12/12 05:37:48;;;;;;;6.00;2.20;;;21.80;51.30;;;;;;5189734;28;20486;-81
2021/12/12 05:40:24;;;;;;;7.32;1.90;;;21.90;51.30;;;;;;5194293;28;20053;-83
2021/12/12 05:42:59;;;;;;;3.80;2.25;;;21.90;51.20;;;;;;5212497;28;20056;-84
2021/12/12 05:45:34;;;;;;;2.92;2.08;;;21.90;51.20;;;;;;5187830;28;20048;-84
2021/12/12 05:48:09;;;;;;;3.45;1.88;;;21.90;51.20;;;;;;5207957;28;20505;-84
2021/12/12 05:50:43;;;;;;;6.82;1.98;;;22.00;51.20;;;;;;5207918;28;20417;-84
2021/12/12 05:53:16;;;;;;;5.00;2.17;;;21.90;51.10;;;;;;5187281;28;20371;-84
2021/12/12 05:55:49;;;;;;;4.00;1.90;;;22.00;51.20;;;;;;5173650;28;20055;-85
2021/12/12 05:58:22;;;;;;;5.85;1.98;;;22.00;50.80;;;;;;5203372;28;20037;-83
2021/12/12 06:01:02;;;;;;;3.72;1.83;;;22.00;51.10;;;;;;5183252;28;20418;-83
2021/12/12 06:03:40;;;;;;;6.10;2.03;;;22.00;51.10;;;;;;5197358;28;20049;-86
2021/12/12 06:06:15;;;;;;;6.30;1.90;;;22.00;51.20;;;;;;5196557;28;21088;-82
2021/12/12 06:08:49;;;;;;;3.72;1.83;;;22.10;51.20;;;;;;5179915;28;20491;-86
2021/12/12 06:11:22;;;;;;;;;;;22.10;51.20;;;;;;5185108;28;20048;-85
2021/12/12 06:13:55;;;;;;;4.50;2.05;;;22.00;51.10;;;;;;5205516;28;19936;-82
2021/12/12 06:16:29;;;;;;;;;;;22.00;51.20;;;;;;5176280;28;20176;-85
2021/12/12 06:19:12;;;;;;;2.75;2.17;;;22.00;51.20;;;;;;5199929;28;19928;-81
2021/12/12 06:21:48;;;;;;;4.15;1.85;;;22.10;51.30;;;;;;5201191;28;20470;-84
2021/12/12 06:24:23;;;;;;;2.65;1.88;;;22.10;51.30;;;;;;5206365;28;20494;-84
2021/12/12 06:27:00;;;;;;;5.05;1.80;;;22.10;51.30;;;;;;5179316;28;20049;-84
2021/12/12 06:29:33;;;;;;;4.15;2.00;;;22.10;51.30;;;;;;5189042;28;20036;-83
2021/12/12 06:32:06;;;;;;;3.70;1.90;;;22.10;51.30;;;;;;5202172;28;20056;-82
2021/12/12 06:34:39;;;;;;;4.10;1.88;;;22.10;51.30;;;;;;5205729;28;20048;-84
2021/12/12 06:37:12;;;;;;;4.78;2.05;;;22.10;51.40;;;;;;5178733;28;20048;-84
2021/12/12 06:39:47;;;;;;;4.47;2.05;;;22.10;51.40;;;;;;5186138;28;20550;-86
2021/12/12 06:42:20;;;;;;;7.63;2.20;;;22.10;51.30;;;;;;5204221;28;20060;-86
2021/12/12 06:44:53;;;;;;;8.90;2.00;;;22.10;51.50;;;;;;5201854;28;20057;-84
2021/12/12 06:47:26;;;;;;;6.32;1.98;;;22.10;51.50;;;;;;5202065;28;20041;-82
2021/12/12 06:50:00;;;;;;;4.85;1.75;;;22.10;51.50;;;;;;5199453;28;20545;-82
2021/12/12 06:52:33;;;;;;;3.75;1.83;;;22.10;51.50;;;;;;5191929;28;20049;-84
2021/12/12 06:55:10;;;;;;;7.13;2.08;;;22.10;51.50;;;;;;5201593;28;20052;-83
2021/12/12 06:57:43;;;;;;;9.70;1.88;;;22.10;51.50;;;;;;5175806;28;20053;-84
2021/12/12 07:00:20;;;;;;;9.80;2.17;;;22.20;51.70;;;;;;5199808;28;20049;-84
2021/12/12 07:02:53;;;;;;;3.65;1.55;;;22.10;51.60;;;;;;5198438;28;20575;-85
2021/12/12 07:05:28;;;;;;;4.22;1.75;;;22.20;51.60;;;;;;5202637;28;20053;-81
2021/12/12 07:08:03;;;;;;;6.57;2.17;;;22.20;51.70;;;;;;5204915;28;20061;-84
2021/12/12 07:10:36;;;;;;;2.25;1.60;;;22.20;51.80;;;;;;5190050;28;20047;-84
2021/12/12 07:13:09;;;;;;;4.82;2.35;;;22.20;51.80;;;;;;5200223;28;20068;-84
2021/12/12 07:15:52;;;;;;;3.33;1.70;;;22.20;51.80;;;;;;5195425;28;20774;-86
2021/12/12 07:18:28;;;;;;;3.90;1.80;;;22.20;51.90;;;;;;5181026;28;20060;-83
2021/12/12 07:21:05;;;;;;;8.90;2.45;;;22.20;51.90;;;;;;5199861;28;20072;-82
2021/12/12 07:23:40;;;;;;;4.88;1.98;;;22.20;51.90;;;;;;5196735;28;20044;-83
2021/12/12 07:26:14;;;;;;;6.72;1.70;;;22.20;52.00;;;;;;5183203;28;20048;-85
2021/12/12 07:28:48;;;;;;;4.75;1.75;;;22.20;52.00;;;;;;5195159;28;20301;-85
2021/12/12 07:31:23;;;;;;;5.68;1.90;;;22.20;51.90;;;;;;5193850;28;20045;-82
2021/12/12 07:34:12;;;;;;;5.22;1.90;;;22.20;52.00;;;;;;5198370;28;21138;-84
2021/12/12 07:36:49;;;;;;;3.85;1.58;;;22.20;52.10;;;;;;5196416;28;20044;-83
2021/12/12 07:39:23;;;;;;;7.70;1.70;;;22.20;52.10;;;;;;5204691;28;20478;-84
2021/12/12 07:41:57;;;;;;;3.70;1.92;;;22.20;52.10;;;;;;5163069;28;20073;-84
2021/12/12 07:44:34;;;;;;;8.95;1.88;;;22.20;52.10;;;;;;5196362;28;20056;-82
2021/12/12 07:47:08;;;;;;;7.03;1.95;;;22.20;52.10;;;;;;5190528;28;20500;-83
2021/12/12 07:49:45;;;;;;;4.95;2.05;;;22.20;52.10;;;;;;5200825;28;20063;-84
2021/12/12 07:52:21;;;;;;;5.72;1.95;;;22.20;52.20;;;;;;5184660;28;20496;-83
2021/12/12 07:54:56;;;;;;;4.47;1.75;;;22.30;52.30;;;;;;5202290;28;20052;-83
2021/12/12 07:57:30;;;;;;;8.80;2.00;;;22.30;52.30;;;;;;5180220;28;20049;-84
2021/12/12 08:00:12;;;;;;;6.63;1.83;;;22.30;52.30;;;;;;5197942;28;20041;-84
2021/12/12 08:02:48;;;;;;;7.13;2.55;;;22.30;52.30;;;;;;5192250;28;20060;-85
2021/12/12 08:05:27;;;;;;;6.13;1.98;;;22.20;52.30;;;;;;5162308;28;1073594;-83
2021/12/12 08:08:06;;;;;;;7.55;1.83;;;22.30;52.40;;;;;;5198405;28;20514;-84
2021/12/12 08:10:41;;;;;;;7.43;2.03;;;22.30;52.40;;;;;;5204317;28;20041;-85
2021/12/12 08:13:16;;;;;;;11.27;2.03;;;22.30;52.50;;;;;;5198755;28;20041;-85
2021/12/12 08:15:48;;;;;;;10.48;2.13;;;22.30;52.50;;;;;;5199848;28;20052;-84
2021/12/12 08:18:21;;;;;;;9.10;2.13;;;22.30;52.50;;;;;;5203118;28;20044;-83
2021/12/12 08:20:54;;;;;;;7.43;2.58;;;22.30;52.50;;;;;;5206289;28;20474;-82
2021/12/12 08:23:27;;;;;;;8.77;1.70;;;22.30;52.60;;;;;;5179178;28;20045;-84
2021/12/12 08:26:02;;;;;;;10.77;2.25;;;22.30;52.60;;;;;;5203066;28;20132;-83
2021/12/12 08:28:35;;;;;;;7.60;2.33;;;22.20;52.50;;;;;;5184554;28;20049;-84
2021/12/12 08:31:08;;;;;;;9.43;2.30;;;22.30;52.50;;;;;;5202038;28;20123;-84
2021/12/12 08:33:40;;;;;;;10.13;2.27;;;22.30;53.00;;;;;;5198405;28;20306;-84
2021/12/12 08:36:15;;;;;;;15.00;2.70;;;22.30;52.90;;;;;;5202575;28;20045;-84
2021/12/12 08:38:48;;;;;;;12.48;2.58;;;22.30;52.90;;;;;;5200702;28;25519;-82
2021/12/12 08:41:20;;;;;;;14.90;2.47;;;22.30;52.80;;;;;;5193025;28;20442;-85
2021/12/12 08:43:53;;;;;;;20.27;2.78;;;22.30;52.70;;;;;;5194514;28;20049;-85
2021/12/12 08:46:26;;;;;;;21.40;2.85;;;22.40;52.60;;;;;;5197952;28;20056;-82
2021/12/12 08:58:59;;;;;;;11.32;2.63;;;22.40;52.20;;;;;;5194554;28;20033;-82
2021/12/12 09:01:32;;;;;;;11.25;2.22;;;22.30;52.00;;;;;;5172407;28;20060;-84
2021/12/12 09:04:06;;;;;;;13.40;2.33;;;22.40;51.80;;;;;;5191645;28;20060;-82
2021/12/12 09:07:05;;;;;;;10.23;2.30;;;22.40;51.60;;;;;;5200145;28;25881;-85
2021/12/12 09:10:01;;;;;;;15.50;2.28;;;22.40;51.50;;;;;;5182320;28;20434;-81
2021/12/12 09:12:40;;;;;;;11.40;2.38;;;22.40;51.40;;;;;;5197704;28;20172;-82
2021/12/12 09:15:17;;;;;;;7.97;1.95;;;22.40;51.20;;;;;;5203569;28;20482;-82
2021/12/12 09:18:05;;;;;;;6.45;1.92;;;22.40;51.10;;;;;;5194460;28;20045;-83
2021/12/12 09:21:05;;;;;;;8.88;2.20;;;22.40;51.00;;;;;;5194496;28;20068;-83
2021/12/12 09:23:44;;;;;;;6.85;2.20;;;22.40;50.90;;;;;;5190728;28;20509;-82
2021/12/12 09:26:23;;;;;;;19.67;3.20;;;22.40;50.90;;;;;;5191005;28;20479;-83
2021/12/12 09:29:02;;;;;;;17.30;2.55;;;22.40;51.10;;;;;;5204678;28;20041;-81
2021/12/12 09:31:41;;;;;;;10.90;2.58;;;22.40;51.30;;;;;;5198963;28;20443;-81
2021/12/12 09:34:54;;;;;;;10.35;2.00;;;22.50;51.60;;;;;;5177238;28;20055;-84
2021/12/12 09:37:39;;;;;;;6.80;1.88;;;22.50;51.90;;;;;;5153116;28;20040;-81
2021/12/12 09:40:12;;;;;;;12.50;2.63;;;22.50;52.10;;;;;;5191457;28;20072;-85
2021/12/12 09:43:11;;;;;;;6.17;1.87;;;22.50;52.30;;;;;;5190788;28;20048;-82
2021/12/12 09:45:53;;;;;;;12.70;2.60;;;22.50;52.50;;;;;;5193535;28;20483;-80
2021/12/12 09:52:22;;;;;;;7.43;2.40;;;22.60;52.90;;;;;;5194583;28;20052;-81
2021/12/12 09:55:09;;;;;;;8.18;1.98;;;22.50;53.00;;;;;;5194213;28;20056;-79
2021/12/12 09:57:53;;;;;;;10.65;1.98;;;22.60;53.10;;;;;;5169742;28;20045;-83
2021/12/12 10:01:00;;;;;;;18.80;1.90;;;22.60;53.10;;;;;;5191618;28;20040;-80
2021/12/12 10:03:48;;;;;;;11.95;2.22;;;22.50;52.80;;;;;;5188422;28;20053;-82
2021/12/12 10:06:34;;;;;;;8.25;2.20;;;22.60;52.70;;;;;;5172588;28;20060;-82
2021/12/12 10:09:12;;;;;;;11.10;2.17;;;22.60;52.50;;;;;;5198469;28;20037;-82
2021/12/12 10:12:11;;;;;;;11.27;2.70;;;22.60;52.20;;;;;;5176312;28;20049;-83
2021/12/12 10:14:49;;;;;;;8.95;2.00;;;22.60;51.10;;;;;;5187761;28;20036;-83
2021/12/12 10:17:40;;;;;;;8.25;2.30;;;22.50;51.20;;;;;;5190030;28;20049;-83
2021/12/12 10:20:24;;;;;;;6.53;2.25;;;22.50;51.00;;;;;;5192802;28;20049;-80
2021/12/12 10:23:02;;;;;;;;;;;22.50;51.00;;;;;;5191126;28;20045;-81
2021/12/12 10:25:41;;;;;;;7.22;2.30;;;22.50;50.90;;;;;;5195413;28;19939;-80
2021/12/12 10:28:42;;;;;;;4.45;1.73;;;22.50;50.90;;;;;;5191276;28;20059;-81
2021/12/12 10:31:18;;;;;;;4.15;1.95;;;22.50;50.70;;;;;;5190079;28;20044;-79
2021/12/12 10:34:34;;;;;;;6.75;2.35;;;22.50;50.70;;;;;;5175807;28;20533;-81
2021/12/12 10:37:27;;;;;;;12.32;2.88;;;22.50;50.30;;;;;;5189851;28;20529;-81
2021/12/12 10:40:12;;;;;;;60.85;19.60;;;22.50;50.40;;;;;;5192712;28;20049;-80
2021/12/12 10:42:48;;;;;;;125.07;48.05;;;22.50;50.40;;;;;;5194225;28;20058;-82
2021/12/12 10:45:26;;;;;;;190.00;74.55;;;22.50;50.60;;;;;;5191196;28;20056;-81
2021/12/12 10:48:27;;;;;;;231.13;82.85;;;22.50;50.70;;;;;;5190356;28;20406;-81
2021/12/12 10:51:15;;;;;;;254.50;95.15;;;22.50;50.70;;;;;;5186194;28;20110;-83
2021/12/12 10:53:57;;;;;;;258.73;99.10;;;22.60;50.90;;;;;;5180137;28;20365;-84
2021/12/12 10:56:58;;;;;;;273.55;104.72;;;22.60;51.60;;;;;;5204915;28;20033;-83
2021/12/12 10:59:39;;;;;;;271.63;104.03;;;22.70;51.10;;;;;;5169943;28;20900;-82
2021/12/12 11:02:16;;;;;;;271.33;103.28;;;22.70;51.20;;;;;;5191620;28;20064;-81
2021/12/12 11:04:55;;;;;;;286.98;108.00;;;22.80;51.30;;;;;;5195672;28;20045;-84
2021/12/12 11:07:35;;;;;;;289.98;113.00;;;22.80;51.40;;;;;;5184359;28;20053;-82
2021/12/12 11:10:17;;;;;;;278.02;109.53;;;22.90;51.40;;;;;;5191688;28;20060;-83
2021/12/12 11:13:15;;;;;;;247.05;98.75;;;22.90;51.50;;;;;;5196885;28;20159;-80
2021/12/12 11:15:49;;;;;;;203.75;80.82;;;23.00;50.90;;;;;;5198107;28;20402;-84
2021/12/12 11:18:45;;;;;;;189.38;70.38;;;23.30;50.20;;;;;;5192282;28;20041;-85
2021/12/12 11:21:26;;;;;;;148.63;58.78;;;23.40;49.60;;;;;;5197491;28;20610;-81
2021/12/12 11:24:04;;;;;;;119.68;47.42;;;23.60;49.20;;;;;;5176106;28;20056;-88
2021/12/12 11:26:42;;;;;;;89.22;36.95;;;24.20;48.10;;;;;;5200813;28;20045;-81
2021/12/12 11:29:23;;;;;;;68.25;28.90;;;26.60;44.20;;;;;;5199239;28;20592;-82
2021/12/12 11:32:02;;;;;;;61.08;24.08;;;28.60;40.60;;;;;;5201732;28;20049;-85
2021/12/12 11:34:50;;;;;;;81.72;33.88;;;29.20;39.00;;;;;;5204520;28;20538;-83
2021/12/12 11:37:50;;;;;;;58.15;32.97;;;30.70;37.70;;;;;;5205027;28;20044;-82
2021/12/12 11:40:40;;;;;;;53.63;36.25;;;32.00;36.50;;;;;;5183923;28;20038;-82
2021/12/12 11:43:24;;;;;;;53.58;24.48;;;33.00;35.40;;;;;;5201863;28;20324;-85
2021/12/12 11:46:01;;;;;;;38.10;16.98;;;32.60;35.40;;;;;;5180463;28;20057;-85
2021/12/12 11:49:09;;;;;;;36.55;14.35;;;31.60;36.00;;;;;;5200996;28;20402;-82
2021/12/12 11:51:48;;;;;;;39.20;15.45;;;30.40;37.20;;;;;;5186016;28;20045;-85
2021/12/12 11:54:39;;;;;;;46.33;18.73;;;29.30;38.80;;;;;;5207407;28;20053;-81
2021/12/12 11:57:44;;;;;;;56.00;21.30;;;28.10;40.20;;;;;;5207645;28;20198;-82
2021/12/12 12:00:28;;;;;;;51.75;20.27;;;27.40;41.50;;;;;;5171739;28;20067;-84
2021/12/12 12:03:12;;;;;;;42.03;17.30;;;26.70;42.50;;;;;;5200991;28;20063;-80
2021/12/12 12:06:06;;;;;;;44.20;15.95;;;26.20;43.30;;;;;;5205442;28;20056;-81
2021/12/12 12:08:58;;;;;;;;;;;25.90;43.70;;;;;;5193875;28;20060;-79
2021/12/12 12:11:59;;;;;;;34.83;13.93;;;25.50;44.00;;;;;;5182085;28;19929;-83
2021/12/12 12:14:56;;;;;;;27.02;10.88;;;25.20;44.40;;;;;;5206394;28;20685;-81
2021/12/12 12:17:35;;;;;;;27.80;11.52;;;25.00;45.00;;;;;;5207584;28;20051;-81
2021/12/12 12:20:07;;;;;;;31.10;11.05;;;24.90;45.40;;;;;;5212176;28;20056;-80
2021/12/12 12:23:06;;;;;;;29.77;10.75;;;24.70;45.60;;;;;;5207652;28;20379;-81
2021/12/12 12:28:57;;;;;;;30.15;11.10;;;24.50;46.20;;;;;;5213275;28;20045;-83
2021/12/12 12:31:33;;;;;;;30.95;10.90;;;24.30;46.50;;;;;;5207510;28;20056;-84
2021/12/12 12:34:35;;;;;;;34.75;10.50;;;24.20;46.60;;;;;;5204211;28;20041;-81
2021/12/12 12:37:45;;;;;;;27.67;9.80;;;24.10;46.80;;;;;;5191938;28;20041;-82
2021/12/12 12:41:15;;;;;;;26.30;10.50;;;24.00;47.00;;;;;;5201391;28;20052;-81
2021/12/12 12:44:25;;;;;;;24.88;9.32;;;23.90;47.10;;;;;;5200523;28;20579;-80
2021/12/12 12:47:46;;;;;;;20.42;8.40;;;23.80;47.30;;;;;;5200199;28;20071;-82
2021/12/12 12:50:56;;;;;;;19.20;8.23;;;23.80;47.50;;;;;;5205266;28;20064;-83
2021/12/12 12:53:50;;;;;;;20.63;8.15;;;23.70;47.50;;;;;;5188637;28;20045;-81
2021/12/12 12:56:44;;;;;;;21.73;7.93;;;23.70;47.60;;;;;;5200779;28;20041;-81
2021/12/12 12:59:37;;;;;;;;;;;23.60;47.70;;;;;;5186127;28;20049;-81
2021/12/12 13:02:35;;;;;;;16.52;6.78;;;23.50;47.80;;;;;;5203010;28;20413;-81
2021/12/12 13:05:07;;;;;;;18.95;7.03;;;23.50;47.80;;;;;;5150513;28;20057;-83
2021/12/12 13:07:40;;;;;;;14.20;6.75;;;23.50;47.90;;;;;;5195524;28;20055;-81
2021/12/12 13:10:22;;;;;;;16.63;6.88;;;23.50;48.00;;;;;;5176863;28;20615;-81
2021/12/12 13:13:22;;;;;;;18.05;6.65;;;23.40;48.00;;;;;;5187249;28;20033;-81
2021/12/12 13:15:57;;;;;;;21.70;7.10;;;23.40;48.00;;;;;;5199470;28;20037;-81
2021/12/12 13:18:47;;;;;;;15.38;6.40;;;23.40;48.10;;;;;;5206523;28;20057;-82
2021/12/12 13:21:28;;;;;;;17.75;6.28;;;23.40;48.30;;;;;;5214438;28;20041;-80
2021/12/12 13:24:08;;;;;;;15.38;6.03;;;23.30;48.30;;;;;;5197329;28;20064;-81
2021/12/12 13:27:16;;;;;;;20.17;6.28;;;23.30;48.40;;;;;;5188639;28;20664;-79
2021/12/12 13:30:40;;;;;;;17.17;5.43;;;23.30;48.40;;;;;;5187788;28;20485;-80
2021/12/12 13:33:23;;;;;;;15.23;5.40;;;23.20;48.40;;;;;;5187263;28;20290;-83
2021/12/12 13:36:14;;;;;;;19.40;6.65;;;23.20;48.50;;;;;;5214192;28;20462;-79
2021/12/12 13:39:09;;;;;;;17.67;5.70;;;23.20;48.50;;;;;;5177764;28;20053;-80
2021/12/12 13:42:06;;;;;;;14.18;5.88;;;23.10;48.50;;;;;;5211469;28;20474;-83
2021/12/12 13:45:10;;;;;;;14.90;4.50;;;23.10;48.60;;;;;;5216991;28;20045;-80
2021/12/12 13:47:53;;;;;;;13.00;4.93;;;23.10;48.60;;;;;;5211310;28;20056;-83
2021/12/12 13:50:49;;;;;;;15.25;5.05;;;23.10;48.60;;;;;;5193802;28;20415;-80
2021/12/12 13:53:42;;;;;;;15.63;4.93;;;23.10;48.70;;;;;;5212745;28;20044;-80
2021/12/12 13:56:21;;;;;;;;;;;23.10;48.70;;;;;;5212821;28;20297;-79
2021/12/12 13:59:15;;;;;;;8.73;4.10;;;23.00;48.70;;;;;;5212865;28;19928;-81
2021/12/12 14:01:59;;;;;;;11.10;4.43;;;23.00;48.80;;;;;;5208583;28;20553;-81
2021/12/12 14:04:55;;;;;;;;;;;23.00;48.80;;;;;;5212371;28;20052;-81
2021/12/12 14:07:37;;;;;;;13.77;4.30;;;22.90;48.80;;;;;;5205428;28;20152;-83
2021/12/12 14:10:16;;;;;;;12.10;4.30;;;22.90;48.80;;;;;;5213679;28;20584;-84
2021/12/12 14:12:51;;;;;;;11.27;4.45;;;22.90;48.90;;;;;;5215588;28;20041;-82
2021/12/12 14:15:27;;;;;;;10.23;3.75;;;22.90;48.90;;;;;;5213138;28;25125;-81
2021/12/12 14:18:03;;;;;;;8.80;3.58;;;22.90;48.90;;;;;;5214103;28;20037;-83
2021/12/12 14:20:42;;;;;;;8.07;3.85;;;22.90;49.00;;;;;;5212033;28;20064;-83
2021/12/12 14:23:29;;;;;;;11.10;4.25;;;22.90;48.90;;;;;;5214248;28;20841;-80
2021/12/12 14:26:11;;;;;;;7.38;3.00;;;22.90;48.90;;;;;;5215466;28;20056;-82
2021/12/12 14:28:49;;;;;;;7.88;3.58;;;22.80;48.90;;;;;;5198416;28;20048;-80